x

8447387 - Borden Flats Light At Fall River, Ma (bltm3) Weather Station

9:18 - Wed 17th Sep 2014 All times are EDT. -4 hours from GMT.

  • Wind
    9mph, 10mph gusts
  • Aire Temp 65°f
  • Sea Pressure 1014.9mb
  • 8447387 - Borden Flats Light At Fall River, Ma
  • 8447387 - Borden Flats Light At Fall River, Ma

More Historic Weather Station data

Upgrade to MSW Pro to gain access to the past 30 days of data for over 8000 Wavebouys and Weather Stations around the globe.

Join Pro

Comparision Forecast

View Surf forecast
   
mié 09/17 9:18 9 10 mph 1014.9mb 65f
9:12 10 13 mph 1014.8mb 65f
9:06 10 13 mph 1014.8mb 65f
9:00 8 10 mph 1014.8mb 65f
8:54 8 10 mph 1014.8mb 65f
8:48 10 13 mph 1014.8mb 65f
8:42 9 11 mph 1014.8mb 65f
8:36 9 10 mph 1014.7mb 65f
8:30 9 11 mph 1014.6mb 65f
8:24 9 10 mph 1014.6mb 65f
8:18 9 10 mph 1014.6mb 65f
8:12 10 13 mph 1014.5mb 66f
8:06 8 13 mph 1014.4mb 66f
8:00 11 15 mph 1014.4mb 66f
7:54 10 14 mph 1014.4mb 65f
7:48 9 13 mph 1014.4mb 65f
7:42 9 11 mph 1014.3mb 66f
7:36 10 13 mph 1014.3mb 66f
7:30 10 14 mph 1014.3mb 66f
7:24 10 14 mph 1014.2mb 66f
7:18 11 15 mph 1014.1mb 66f
7:12 11 15 mph 1014.1mb 66f
7:06 10 14 mph 1014.1mb 66f
7:00 10 14 mph 1014.1mb 66f
6:54 11 14 mph 1014mb 66f
6:48 13 15 mph 1014mb 67f
6:42 14 16 mph 1013.9mb 67f
6:36 9 14 mph 1013.9mb 67f
6:30 11 14 mph 1013.9mb 67f
6:24 15 17 mph 1013.8mb 67f
6:18 13 16 mph 1013.9mb 67f
6:12 14 17 mph 1013.8mb 68f
6:06 13 17 mph 1013.8mb 68f
6:00 11 16 mph 1013.8mb 68f
5:54 11 16 mph 1013.7mb 68f
5:48 13 15 mph 1013.7mb 68f
5:42 10 13 mph 1013.7mb 68f
5:36 11 14 mph 1013.7mb 68f
5:30 13 15 mph 1013.6mb 68f
5:24 11 14 mph 1013.5mb 68f
5:18 14 15 mph 1013.5mb 68f
5:12 13 16 mph 1013.5mb 68f
5:06 13 16 mph 1013.4mb 68f
5:00 14 17 mph 1013.4mb 68f
4:54 14 17 mph 1013.4mb 68f
4:48 14 17 mph 1013.4mb 68f
4:42 14 18 mph 1013.4mb 68f
4:36 13 15 mph 1013.5mb 68f
4:30 14 17 mph 1013.5mb 68f
4:24 14 16 mph 1013.5mb 68f
4:18 15 17 mph 1013.5mb 68f
4:12 14 16 mph 1013.6mb 68f
4:06 13 16 mph 1013.6mb 68f
4:00 14 16 mph 1013.6mb 69f
3:54 11 14 mph 1013.7mb 69f
3:48 10 13 mph 1013.7mb 69f
3:42 11 14 mph 1013.7mb 69f
3:36 10 14 mph 1013.8mb 69f
3:30 8 9 mph 1013.9mb 69f
3:24 10 11 mph 1013.9mb 69f
3:18 10 14 mph 1014mb 69f
3:12 9 13 mph 1014.1mb 69f
3:06 10 11 mph 1014mb 69f
3:00 11 14 mph 1014mb 69f
2:54 8 11 mph 1014mb 69f
2:48 7
mph
1013.9mb 70f
2:42 8 10 mph 1013.9mb 69f
2:36 7 10 mph 1014mb 69f
2:30 7 8 mph 1014.1mb 69f
2:24 5 7 mph 1014mb 69f
2:18 7 8 mph 1014.1mb 69f
2:12 5 6 mph 1014.2mb 69f
2:06 7 8 mph 1014.2mb 68f
2:00 7 8 mph 1014.3mb 68f
1:54 7 9 mph 1014.3mb 68f
1:48 9 10 mph 1014.4mb 67f
1:42 7 9 mph 1014.4mb 67f
1:36 7 8 mph 1014.5mb 68f
1:30 7 8 mph 1014.5mb 67f
1:24 7 9 mph 1014.7mb 67f
1:18 6 7 mph 1014.8mb 68f
1:12 5 6 mph 1014.9mb 67f
1:06 6 8 mph 1015mb 67f
1:00 6 7 mph 1014.9mb 67f
12:54 5 6 mph 1015mb 67f
12:48 7 8 mph 1015.1mb 66f
12:42 7 8 mph 1015.2mb 66f
12:36 7 8 mph 1015.2mb 66f
12:30 7 9 mph 1015.3mb 66f
12:24 6 8 mph 1015.3mb 65f
12:18 5 6 mph 1015.4mb 66f
12:12 5 6 mph 1015.5mb 66f
12:06 2 5 mph 1015.6mb 66f
12:00 2 3 mph 1015.6mb 65f
11:54 3 5 mph 1015.7mb 65f
11:48 5 6 mph 1015.7mb 65f
11:42 5 7 mph 1015.8mb 64f
11:36 6 7 mph 1015.8mb 64f
11:30 6 8 mph 1015.8mb 64f
11:24 6 8 mph 1015.9mb 64f
11:18 6 7 mph 1015.9mb 63f
11:12 7 8 mph 1016mb 63f
11:06 6 7 mph 1016.1mb 63f
11:00 6
mph
1016.1mb 63f
10:54 5 6 mph 1016mb 63f
10:48 2 5 mph 1016mb 63f
10:42 3
mph
1016.1mb 63f
10:36 1 2 mph 1016.1mb 62f
10:30 2 3 mph 1016.2mb 62f
10:24  -  2 mph 1016.2mb 63f
10:18  -  2 mph 1016.3mb 63f
10:12 1 2 mph 1016.3mb 64f
10:06 3 5 mph 1016.3mb 63f
10:00 3 5 mph 1016.3mb 64f
9:54 5 7 mph 1016.3mb 63f
9:48 5 7 mph 1016.3mb 63f
9:42 7 9 mph 1016.3mb 62f
9:36 7 9 mph 1016.4mb 62f
9:30 7 8 mph 1016.4mb 62f
9:24 7 9 mph 1016.4mb 62f
9:18 7 9 mph 1016.5mb 61f
9:12 7 9 mph 1016.4mb 61f
9:06 6 7 mph 1016.4mb 61f
9:00 6 7 mph 1016.4mb 61f
8:54 3 6 mph 1016.4mb 61f
8:48 2 3 mph 1016.5mb 60f
8:42 1 2 mph 1016.4mb 60f
8:36 2 5 mph 1016.4mb 59f
8:30 2 5 mph 1016.5mb 59f
8:24 3 5 mph 1016.5mb 59f
8:18 2 5 mph 1016.5mb 58f
8:12 2 5 mph 1016.4mb 58f
8:06 2 3 mph 1016.3mb 58f
8:00 2 3 mph 1016.3mb 59f
7:54 3 6 mph 1016.4mb 59f
7:48 1 2 mph 1016.4mb 59f
7:42  -  3 mph 1016.4mb 58f
7:36 2 3 mph 1016.4mb 58f
7:30 3 5 mph 1016.4mb 58f
7:24 3 6 mph 1016.4mb 58f
7:18 3 6 mph 1016.4mb 58f
7:12 2 6 mph 1016.3mb 57f
7:06 2 5 mph 1016.2mb 58f
7:00 2 3 mph 1016.2mb 57f
6:54  -  2 mph 1016.2mb 57f
6:48 2 3 mph 1016.1mb 57f
6:42 3 6 mph 1016.1mb 56f
6:36  -  3 mph 1016mb 56f
6:30 2 5 mph 1016mb 56f
6:24 1 3 mph 1016mb 56f
6:18 2 5 mph 1015.9mb 56f
6:12 2 3 mph 1015.8mb 56f
6:06 2 5 mph 1015.7mb 57f
6:00 2 3 mph 1015.7mb 57f
5:54 2 3 mph 1015.6mb 57f
5:48 3 6 mph 1015.6mb 57f
5:42 3 5 mph 1015.6mb 57f
5:36 3 5 mph 1015.6mb 58f
5:30 5 7 mph 1015.5mb 58f
5:24 5 6 mph 1015.5mb 58f
5:18 2 3 mph 1015.5mb 58f
5:12 3 5 mph 1015.5mb 58f
5:06 1 3 mph 1015.5mb 58f
5:00 2 5 mph 1015.5mb 57f
4:54 2 5 mph 1015.4mb 57f
4:48 1 3 mph 1015.3mb 58f
4:42 1 3 mph 1015.4mb 58f
4:36  -  1 mph 1015.3mb 58f
4:30 1 3 mph 1015.3mb 58f
4:24 3 5 mph 1015.2mb 58f
4:18 3 5 mph 1015.2mb 58f
4:12 1 3 mph 1015.2mb 58f
4:06 1 2 mph 1015.2mb 58f
4:00  -  2 mph 1015.3mb 58f
3:54 2 3 mph 1015.2mb 59f
3:48 3
mph
1015.3mb 59f
3:42 3 5 mph 1015.3mb 59f
3:36 5 6 mph 1015.4mb 59f
3:30 3 5 mph 1015.3mb 59f
3:24 3 5 mph 1015.2mb 59f
3:18 2 3 mph 1015.2mb 59f
3:12 2 3 mph 1015.3mb 59f
3:06 2 5 mph 1015.3mb 59f
3:00 3 5 mph 1015.3mb 60f
2:54 6 7 mph 1015.3mb 60f
2:48 6 8 mph 1015.3mb 60f
2:42 6 8 mph 1015.3mb 60f
2:36 7 8 mph 1015.2mb 60f
2:30 6 8 mph 1015.3mb 60f
2:24 6 7 mph 1015.3mb 60f
2:18 5 6 mph 1015.3mb 61f
2:12 3 5 mph 1015.2mb 61f
2:06 5 6 mph 1015.2mb 61f
2:00 6
mph
1015.2mb 61f
1:54 5 6 mph 1015.2mb 61f
1:48 6 8 mph 1015.3mb 61f
1:42 6 8 mph 1015.4mb 61f
1:36 2 3 mph 1015.4mb 62f
1:30 3 5 mph 1015.4mb 62f
1:24 5 6 mph 1015.4mb 62f
1:18 5 6 mph 1015.4mb 62f
1:12 5 6 mph 1015.4mb 62f
1:06 5 6 mph 1015.4mb 62f
1:00 6
mph
1015.3mb 62f
12:54 6 7 mph 1015.3mb 62f
12:48 6 8 mph 1015.3mb 62f
12:42 6 7 mph 1015.3mb 62f
12:36 5 6 mph 1015.3mb 62f
12:30 3 5 mph 1015.3mb 62f
12:24 2 3 mph 1015.3mb 62f
12:18  -  1 mph 1015.3mb 62f
12:12  -  1 mph 1015.3mb 63f
12:06  -  1 mph 1015.3mb 63f
12:00 1 2 mph 1015.4mb 63f
mar 09/16 11:54 2 3 mph 1015.3mb 62f
11:48 1 2 mph 1015.3mb 62f
11:42 1 3 mph 1015.3mb 62f
11:36 2 3 mph 1015.3mb 63f
11:30  -  2 mph 1015.2mb 63f
11:24  -  1 mph 1015.2mb 63f
11:18  -  1 mph 1015.2mb 63f
11:12 1 2 mph 1015.1mb 63f
11:06 1 2 mph 1015.1mb 63f
11:00 1 2 mph 1015.1mb 63f
10:54  -  2 mph 1015mb 63f
10:48  -  2 mph 1015.1mb 63f
10:42  -  1 mph 1015.1mb 63f
10:36 1 2 mph 1015.1mb 63f
10:30  -  2 mph 1015mb 63f
10:24 2 3 mph 1015mb 63f
10:18 3 5 mph 1015mb 63f
10:12 3
mph
1015mb 64f
10:06 2 3 mph 1015mb 64f
10:00 2
mph
1015mb 64f
9:54 2 3 mph 1015mb 64f
9:48 2 5 mph 1015mb 64f
9:42 2 3 mph 1015mb 64f
9:36 2 3 mph 1014.9mb 64f
9:30 2 3 mph 1015mb 64f
9:24  -  2 mph 1014.9mb 64f
9:18 3 5 mph 1014.9mb 64f
9:12 2 3 mph 1014.9mb 64f
9:06 1 2 mph 1014.9mb 64f
9:00 2 3 mph 1014.9mb 64f
8:54 2 3 mph 1014.9mb 64f
8:48 2 3 mph 1015mb 64f
8:42 5
mph
1015mb 64f
8:36 5 6 mph 1015mb 65f
8:30 3
mph
1014.9mb 65f
8:24 3 5 mph 1014.9mb 65f
8:18 6
mph
1014.9mb 65f
8:12 2 5 mph 1014.8mb 66f
8:06 5 6 mph 1014.8mb 65f
8:00 6 7 mph 1014.7mb 65f
7:54 6 8 mph 1014.7mb 65f
7:48 6 8 mph 1014.6mb 65f
7:42 7 8 mph 1014.5mb 66f
7:36 7 8 mph 1014.4mb 66f
7:30 7 8 mph 1014.4mb 66f
7:24 7 8 mph 1014.3mb 66f
7:18 7 8 mph 1014.3mb 66f
7:12 7 9 mph 1014.3mb 66f
7:06 8 10 mph 1014.3mb 66f
7:00 8 9 mph 1014.2mb 66f
6:54 10 11 mph 1014.3mb 66f
6:48 10 13 mph 1014.2mb 66f
6:42 11 14 mph 1014.2mb 66f
6:36 13 14 mph 1014.2mb 66f
6:30 10 13 mph 1014.2mb 66f
6:24 11 13 mph 1014.2mb 66f
6:18 13 14 mph 1014.2mb 66f
6:12 13 15 mph 1014.2mb 66f
6:06 11 13 mph 1014.1mb 66f
6:00 11 14 mph 1014.2mb 67f
5:54 9 10 mph 1014.2mb 67f
5:48 9 11 mph 1014.2mb 67f
5:42 11 14 mph 1014.2mb 67f
5:36 11 13 mph 1014.1mb 67f
5:30 8 11 mph 1014.1mb 67f
5:24 8 10 mph 1014.1mb 67f
5:18 9 13 mph 1014mb 67f
5:12 6 11 mph 1014.1mb 66f
5:06 7 8 mph 1014.1mb 66f
5:00 7 11 mph 1014mb 66f
4:54 13 14 mph 1014mb 66f
4:48 11 14 mph 1013.9mb 67f
4:42 14 16 mph 1013.9mb 67f
4:36 13 15 mph 1013.9mb 67f
4:30 11 14 mph 1013.9mb 67f
4:24 13 14 mph 1013.9mb 67f
4:18 14 17 mph 1013.9mb 67f
4:12 13 15 mph 1013.9mb 67f
4:06 13 15 mph 1013.8mb 67f
4:00 14 16 mph 1013.8mb 67f
3:54 13 14 mph 1013.8mb 67f
3:48 11 14 mph 1013.7mb 67f
3:42 8 10 mph 1013.8mb 67f
3:36 9 11 mph 1013.8mb 67f
3:30 9 11 mph 1013.8mb 67f
3:24 9 11 mph 1013.9mb 67f
3:18 8 10 mph 1013.9mb 67f
3:12 8 10 mph 1013.9mb 67f
3:06 10 13 mph 1013.9mb 67f
3:00 10 14 mph 1013.9mb 67f
2:54 10 13 mph 1014mb 67f
2:48 13 16 mph 1014mb 67f
2:42 13 15 mph 1014.1mb 67f
2:36 11 14 mph 1014.1mb 67f
2:30 11 15 mph 1014mb 67f
2:24 13 14 mph 1014mb 67f
2:18 13 15 mph 1014mb 67f
2:12 10 13 mph 1014.1mb 67f
2:06 9 13 mph 1014.1mb 67f
2:00 9 11 mph 1014.2mb 67f
1:54 9 11 mph 1014.2mb 67f
1:48 8 11 mph 1014.2mb 67f
1:42 7 8 mph 1014.1mb 67f
1:36 9 13 mph 1014.2mb 67f
1:30 9 11 mph 1014.3mb 67f
1:24 10 13 mph 1014.3mb 67f
1:18 8 9 mph 1014.3mb 67f
1:12 9 13 mph 1014.4mb 66f
1:06 9 10 mph 1014.5mb 67f
1:00 9 11 mph 1014.7mb 67f
12:18  -  mph 1015.3mb -
12:12  -  mph 1015.3mb -
12:06  -  mph 1015.4mb -
12:00  -  mph 1015.5mb -
11:54  -  mph 1015.5mb -
11:48 7 8 mph 1015.6mb 66f
11:42 9 11 mph 1015.5mb 66f
11:36 8 9 mph 1015.5mb 66f
11:30 6 9 mph 1015.6mb 65f
11:24 7 8 mph 1015.7mb 65f
11:18 7 9 mph 1015.7mb 65f
11:12 8 10 mph 1015.7mb 65f
11:06 7 9 mph 1015.7mb 65f
11:00 6 8 mph 1015.8mb 65f
10:54 5 6 mph 1015.8mb 65f
10:48 6 7 mph 1015.9mb 65f
10:42 7 8 mph 1015.9mb 65f
10:36 8 10 mph 1016.1mb 65f
10:30 9
mph
1016.1mb 65f
10:24 7 9 mph 1016.2mb 65f
10:18  -  mph 1016.1mb -
10:12  -  mph 1016.1mb -
9:54  -  mph - 65f
9:48  -  mph - 65f
9:36  -  mph - 65f
9:30  -  mph - 64f
9:24  -  mph - 65f
9:18  -  mph - 64f
9:12  -  mph - 64f
9:06  -  mph - 64f
9:00 5 7 mph - 64f
8:54 6 8 mph - 64f
8:48 6 7 mph 1016.2mb 64f
8:42 3 6 mph 1016.2mb 63f
8:36 3 6 mph 1016.2mb 62f
8:30 5 6 mph - 62f
8:24 3 6 mph - 61f
8:18 5 6 mph 1016.5mb 61f
8:12 5 6 mph 1016.6mb 60f
8:06 5 6 mph 1016.8mb 60f
8:00 3 5 mph 1016.8mb 60f
7:54 3 5 mph 1016.8mb 60f
7:48 3 5 mph 1016.8mb 60f
7:42 3
mph
1016.9mb 60f
7:36 2 3 mph 1016.9mb 60f
7:30  -  mph 1016.9mb 60f
7:24  -  mph 1017mb 60f
7:18 2 3 mph 1016.9mb 60f
7:12 2 3 mph 1017mb 60f
7:06 2
mph
1017mb 59f
7:00 2 3 mph 1017.1mb 59f
6:54 2
mph
1017.2mb 59f
6:48 2
mph
1017.2mb 59f
6:42 1 2 mph 1017.2mb 59f
6:36 1 2 mph 1017.2mb 59f
6:30 1 2 mph - 59f
6:24 1 2 mph - 59f
6:18 2 3 mph 1017.2mb 59f
6:12 3
mph
1017.2mb 59f
6:06 3 5 mph 1017.3mb 59f
6:00 3 5 mph 1017.3mb 60f
5:54 3 5 mph 1017.3mb 60f
5:48 3
mph
1017.2mb 61f
5:42 3 6 mph 1017.2mb 61f
5:36 3 5 mph 1017.3mb 61f
5:30 3
mph
1017.3mb 61f
5:24 3
mph
1017.3mb 60f
5:18 2 3 mph 1017.3mb 61f
5:12 3
mph
1017.3mb 60f
5:06 3
mph
1017.3mb 60f
5:00 1 2 mph 1017.3mb 60f
4:54 2 3 mph 1017.2mb 60f
4:48 2 3 mph 1017.1mb 60f
4:42 2
mph
1017mb 60f
4:36 2 3 mph 1017.2mb 59f
4:30 2 3 mph 1017.1mb 59f
4:24 1 2 mph 1017.1mb 60f
4:18 2
mph
1017mb 60f
4:12 2 3 mph 1017.1mb 60f
4:06 2 3 mph 1017.1mb 59f
4:00  -  1 mph 1017.1mb 59f
3:54  -  1 mph 1017.3mb 59f
3:48  -  1 mph 1017.3mb 59f
3:42 2 3 mph 1017.3mb 59f
3:36 2 3 mph 1017.3mb 59f
3:30 2 3 mph 1017.4mb 59f
3:24 2
mph
1017.5mb 59f
3:18 2 3 mph 1017.5mb -
3:12 2 3 mph 1017.6mb 59f
3:06 3
mph
1017.6mb 59f
3:00  -  1 mph 1017.8mb 59f
2:54  -  mph 1017.8mb 59f
2:48  -  mph - 59f
2:30  -  mph - 59f
2:24  -  mph - 59f
2:18  -  mph - 59f
2:12  -  mph - 58f
2:06  -  mph - 58f
2:00  -  mph - 58f
1:54  -  mph - 58f
1:48  -  mph - 59f
1:42  -  mph - 59f
1:36  -  mph - 59f
1:30  -  mph 1018.5mb 59f
1:24 5 6 mph 1018.5mb 59f
1:18 5
mph
1018.6mb 59f
1:12 3 5 mph 1018.7mb 59f
1:06 2 3 mph 1018.7mb 58f
1:00  -  mph 1018.9mb -
12:54 5 6 mph 1018.8mb -
12:48  -  mph 1018.8mb 59f
12:42 3 5 mph 1018.8mb 59f
12:36 3 5 mph 1018.8mb 59f
12:30  -  mph 1018.8mb 59f
12:24 3 5 mph 1018.8mb 59f
12:18  -  mph - 59f
12:12  -  mph - 58f
12:06  -  mph - 58f
12:00  -  mph 1018.8mb -
lun 09/15 11:54  -  mph 1019mb -
11:48  -  mph 1018.9mb 59f
11:42  -  mph 1018.7mb 58f
11:36  -  mph 1018.8mb 58f
11:30 7 8 mph 1018.6mb 58f
11:24 8 10 mph 1018.7mb 58f
11:18  -  mph 1018.7mb 59f
11:12  -  mph 1018.9mb 59f
11:06  -  mph 1019mb 59f
11:00 7 8 mph - 59f
10:54 6 8 mph - 59f
10:48  -  mph 1019.2mb -
10:42  -  mph 1019.3mb -
10:36  -  mph 1019.3mb -
10:30  -  mph - 59f
10:24  -  mph - 59f
10:18 7 8 mph - 60f
10:12 6 8 mph - 60f
10:06 6 7 mph - 61f
10:00 6 8 mph 1019.5mb 61f
9:54 6 7 mph 1019.5mb 61f
9:48 5 7 mph 1019.6mb 61f
9:42 5 6 mph 1019.6mb 61f
9:36 6 9 mph 1019.5mb 61f
9:30 6 8 mph 1019.6mb 61f
9:24 6 8 mph 1019.6mb 62f
9:18 7 8 mph 1019.7mb 62f
9:12 6 8 mph 1019.7mb 62f
9:06 6 8 mph 1019.9mb 62f
9:00 6 8 mph 1019.8mb 63f
8:54 1 5 mph 1020mb 63f
8:48 2 6 mph 1020mb 63f
8:42 7 8 mph 1019.8mb 63f
8:36 8 10 mph 1019.7mb 63f
8:30 5 6 mph 1019.8mb 63f
8:24 6 7 mph 1019.8mb 63f
8:18 1 3 mph 1019.9mb 63f
8:12 3 5 mph 1019.9mb 63f
8:06 6 8 mph 1019.7mb 63f
8:00 6 11 mph 1019.4mb 63f
7:54 6 9 mph 1019.3mb 63f
7:48 7 9 mph 1019.3mb 63f
7:42 11 15 mph 1019.4mb 64f
7:36 14 16 mph 1019.4mb 64f
7:30 15 17 mph 1019.4mb 64f
7:24 15 17 mph 1019.3mb 64f
7:18 15 17 mph 1019.3mb 64f
7:12 11 15 mph 1019.2mb 64f
7:06 11 14 mph 1019mb 64f
7:00 11 14 mph 1018.9mb 64f
6:54 11 15 mph 1018.9mb 64f
6:48 10 13 mph 1019.2mb 64f
6:42 10 13 mph 1019.2mb 65f
6:36 10 13 mph 1019.2mb 65f
6:30 11 15 mph 1019.3mb 65f
6:24 13 14 mph 1019.5mb 65f
6:18 13 15 mph 1019.5mb 65f
6:12 11 14 mph 1019.7mb 65f
6:06 11 14 mph 1019.6mb 65f
6:00 11 14 mph 1019.7mb 65f
5:54 10 13 mph 1019.7mb 65f
5:48 11 14 mph 1019.6mb 65f
5:42 11 14 mph 1019.6mb 65f
5:36 11 14 mph 1019.6mb 66f
5:30 11 14 mph 1019.6mb 65f
5:24 11 14 mph 1019.6mb 65f
5:18 13 15 mph 1019.6mb 65f
5:12 11 14 mph 1019.5mb 65f
5:06 10 14 mph 1019.6mb 66f
5:00 11 13 mph 1019.7mb 66f
4:54 8 11 mph 1019.6mb 66f
4:48 9 11 mph 1019.5mb 66f
4:42 8 10 mph 1019.5mb 66f
4:36 6 7 mph 1019.5mb 66f
4:30 8 10 mph 1019.5mb 66f
4:24 9 11 mph 1019.6mb 66f
4:18 8 10 mph 1019.7mb 66f
4:12 9 11 mph 1019.8mb 66f
4:06 8 10 mph 1019.8mb 66f
4:00 9 10 mph 1019.7mb 66f
3:54 6 10 mph 1019.7mb 67f
3:48 6 8 mph 1019.8mb 66f
3:42 3 6 mph 1020mb 66f
3:36 3 6 mph 1020.1mb 66f
3:30 3 6 mph 1020.1mb 67f
3:24 2 5 mph 1020.1mb 67f
3:18 3 6 mph 1020.2mb 65f
3:12 6 7 mph 1020.2mb 66f
3:06 3 5 mph 1020.2mb 66f
3:00 3 6 mph 1020.2mb 66f
2:54 3 5 mph 1020.3mb 67f
2:48 2 5 mph 1020.4mb 69f
2:42  -  1 mph 1020.4mb 67f
2:36  -  1 mph 1020.5mb 65f
2:30 1 2 mph 1020.6mb 65f
2:24 2 3 mph 1020.7mb 65f
2:18 3 5 mph 1020.8mb 65f
2:12 2 5 mph 1020.9mb 65f
2:06 3 5 mph 1020.9mb 65f
2:00 6 7 mph 1020.9mb 65f
1:54 3 6 mph 1021mb 65f
1:48 3 5 mph 1021mb 65f
1:42 2 3 mph 1021mb 65f
1:36 3 5 mph 1021mb 65f
1:30 2 3 mph 1021mb 66f
1:24  -  2 mph 1021.1mb 64f
1:18 3 5 mph 1021.2mb 64f
1:12 2 3 mph 1021.3mb 64f
1:06 5 6 mph 1021.4mb 64f
1:00 6 7 mph 1021.5mb 64f
12:54 5 7 mph 1021.5mb 64f
12:48 5 6 mph 1021.6mb 64f
12:42 2 5 mph 1021.7mb 64f
12:36 3 6 mph 1021.8mb 63f
12:30 6 7 mph 1021.8mb 62f
12:24 7 8 mph 1021.8mb 62f
12:18 5 7 mph 1021.7mb 62f
12:12 5 7 mph 1021.9mb 62f
12:06 6 8 mph 1021.9mb 62f
12:00 6 7 mph 1022mb 62f
11:54 6 7 mph 1022.1mb 62f
11:48 6 7 mph 1022.2mb 61f
11:42 6 7 mph 1022.1mb 61f
11:36 6 8 mph 1022.2mb 61f
11:30 6 8 mph 1022.2mb 61f
11:24 6 8 mph 1022.3mb 60f
11:18 5 6 mph 1022.4mb 61f
11:12 3 6 mph 1022.5mb 60f
11:06 5 6 mph 1022.6mb 60f
11:00 3 6 mph 1022.6mb 60f
10:54 5 7 mph 1022.7mb 60f
10:48 3 6 mph 1022.7mb 60f
10:42 3 5 mph 1022.7mb 59f
10:36 2 3 mph 1022.8mb 58f
10:30 1 2 mph 1022.9mb 58f
10:24  -  1 mph 1023.1mb 59f
10:18  -  1 mph 1023.1mb 59f
10:12  -  mph 1023.2mb 59f
10:06  -  2 mph 1023.2mb 59f
10:00 2 5 mph 1023.2mb 58f
9:54 3 5 mph 1023.2mb 58f
9:48 5 6 mph 1023.2mb 58f
9:42 5 6 mph 1023.3mb 57f
9:30 6 7 mph 1023.3mb 56f
9:24 6 7 mph 1023.3mb 56f
9:18 6 7 mph 1023.3mb 56f
9:12 7 8 mph 1023.4mb 55f
9:06 8 9 mph 1023.3mb 55f
9:00 7 9 mph 1023.4mb 55f
8:54 7 8 mph 1023.5mb 55f
8:48 7 9 mph 1023.4mb 54f
8:42 7 8 mph 1023.5mb 54f
8:36 7 9 mph 1023.5mb 54f
8:30 7 9 mph 1023.5mb 54f
8:24 7 9 mph 1023.5mb 54f
8:18 8 9 mph 1023.5mb 54f
8:12 5 8 mph 1023.5mb 54f
8:06 5 6 mph 1023.5mb 54f
8:00 6 7 mph 1023.6mb 53f
7:54 5 6 mph 1023.6mb 53f
7:48 3 6 mph 1023.6mb 52f
7:42 6 7 mph 1023.7mb 52f
7:36 6 8 mph 1023.6mb 51f
7:30 6 7 mph 1023.6mb 51f
7:24 6 8 mph 1023.7mb 51f
7:18 7 10 mph 1023.6mb 51f
7:12 7 9 mph 1023.6mb 51f
7:06 7 9 mph 1023.6mb 51f
7:00 6 8 mph 1023.4mb 51f
6:54 6 8 mph 1023.4mb 51f
6:48 6 8 mph 1023.6mb 51f
6:42 6 8 mph 1023.6mb 51f
6:36 7 9 mph 1023.6mb 51f
6:30 7 9 mph 1023.5mb 51f
6:24 7 9 mph 1023.4mb 51f
6:18 7 10 mph 1023.4mb 51f
6:12 5 7 mph 1023.5mb 51f
6:06 7 8 mph 1023.5mb 50f
6:00 6 8 mph 1023.4mb 50f
5:54 6 8 mph 1023.3mb 51f
5:48 7 10 mph 1023.2mb 51f
5:42 6 8 mph 1023.1mb 51f
5:36 7 9 mph 1023.1mb 51f
5:30 5 7 mph 1023mb 51f
5:24 5 7 mph 1023.1mb 51f
5:18 5 6 mph 1023mb 51f
5:12 6 8 mph 1022.9mb 51f
5:06 7 9 mph 1022.8mb 52f
5:00 6 8 mph 1022.8mb 52f
4:54 7 9 mph 1022.7mb 52f
4:48 7 9 mph 1022.7mb 52f
4:42 7 10 mph 1022.6mb 52f
4:36 5 7 mph 1022.6mb 52f
4:30 6 8 mph 1022.6mb 52f
4:24 8 10 mph 1022.6mb 53f
4:18 8 11 mph 1022.5mb 53f
4:12 8 10 mph 1022.4mb 52f
4:06 8 11 mph 1022.4mb 53f
4:00 8 11 mph 1022.4mb 53f
3:54 7 10 mph 1022.4mb 53f
3:48 7 10 mph 1022.4mb 53f
3:42 7 10 mph 1022.3mb 53f
3:36 6 9 mph 1022.2mb 54f
3:30 6 8 mph 1022.2mb 54f
3:24 8 13 mph 1022.1mb 54f
3:18 7 9 mph 1022.2mb 54f
3:12 8 10 mph 1022.2mb 55f
3:06 9 13 mph 1022.2mb 55f
3:00 9 13 mph 1022.3mb 55f
2:54 7 9 mph 1022.4mb 55f
2:48 8 10 mph 1022.4mb 55f
2:42 9 14 mph 1022.4mb 55f
2:36 6 8 mph 1022.5mb 55f
2:30 6 9 mph 1022.6mb 55f
2:24 8 10 mph 1022.5mb 55f
2:18 8 10 mph 1022.4mb 55f
2:12 8 11 mph 1022.4mb 55f
2:06 8 10 mph 1022.4mb 55f
2:00 7 10 mph 1022.3mb 55f
1:54 9 11 mph 1022.4mb 55f
1:48 6 9 mph 1022.4mb 55f
1:42 6 8 mph 1022.4mb 55f
1:36 7 9 mph 1022.4mb 55f
1:30 7 9 mph 1022.3mb 56f
1:24 6 7 mph 1022.2mb 56f
1:18 6 7 mph 1022.2mb 56f
1:12 7 9 mph 1022.1mb 56f
1:06 7 8 mph 1022.1mb 57f
1:00 6 8 mph 1022.2mb 57f
12:54 8 9 mph 1022.1mb 57f
12:48 9 10 mph 1022.1mb 57f
12:42 8 10 mph 1022mb 58f
12:36 9 10 mph 1022mb 58f
12:30 8 9 mph 1022mb 58f
12:24 7 9 mph 1022.1mb 58f
12:18 6 8 mph 1022.1mb 58f
12:12 6 8 mph 1022mb 58f
12:06 6 8 mph 1022mb 59f
12:00 6 7 mph 1022mb 58f
dom 09/14 11:54 7 8 mph 1022mb 59f
11:48 6 8 mph 1022mb 59f
11:42 7 9 mph 1022mb 59f
11:36 7 8 mph 1022mb 59f
11:30 6 8 mph 1022.1mb 60f
11:24 5 7 mph 1022.1mb 60f
11:18 6 9 mph 1022mb 59f
11:12 7 9 mph 1022.1mb 59f
11:06 5 7 mph 1022.1mb 60f
11:00 6 8 mph 1022mb 60f
10:54 6 8 mph 1022.1mb 60f
10:48 6 7 mph 1022mb 60f
10:42 7 9 mph 1021.9mb 59f
10:36 7 9 mph 1021.9mb 59f
10:30 9 13 mph 1021.8mb 59f
10:24 9 11 mph 1021.8mb 60f
10:18 8 11 mph 1021.9mb 60f
10:12 6 9 mph 1021.9mb 60f
10:06 7 9 mph 1021.9mb 60f
10:00 6 8 mph 1022mb 60f
9:54 6 7 mph 1022.1mb 60f
9:48 6 8 mph 1022.2mb 60f
9:42 6 8 mph 1022.2mb 60f
9:36 6 8 mph 1022.3mb 60f
9:30 7 9 mph 1022.4mb 60f
9:24 8 10 mph 1022.3mb 60f
9:18 8 10 mph 1022.3mb 60f
9:12 7 9 mph 1022.3mb 60f
9:06 6 9 mph 1022.4mb 60f
9:00 8 10 mph 1022.3mb 60f
8:54 8 10 mph 1022.2mb 60f
8:48 8 9 mph 1022.3mb 60f
8:42 7 8 mph 1022.3mb 61f
8:36 7 9 mph 1022.3mb 61f
8:30 9 13 mph 1022.3mb 60f
8:24 9 13 mph 1022.2mb 60f
8:18 10 14 mph 1022.4mb 60f
8:12 11 14 mph 1022.2mb 61f
8:06 11 14 mph 1022.1mb 61f
8:00 14 15 mph 1022.1mb 61f
7:54 9 11 mph 1021.9mb 62f
7:48 6 7 mph 1021.9mb 63f
7:42 7 8 mph 1021.9mb 63f
7:36 8 10 mph 1021.9mb 63f
7:30 9 11 mph 1021.9mb 64f
7:24 6 8 mph 1021.7mb 65f
7:18 7 9 mph 1021.6mb 65f
7:12 8 9 mph 1021.5mb 65f
7:06 8 9 mph 1021.5mb 65f
7:00 7 9 mph 1021.5mb 65f
6:54 9 11 mph 1021.5mb 65f
6:48 8 10 mph 1021.6mb 65f
6:42 9 10 mph 1021.6mb 65f
6:36 9 11 mph 1021.6mb 65f
6:30 9 11 mph 1021.6mb 65f
6:24 7 9 mph 1021.5mb 66f
6:18 7 9 mph 1021.5mb 66f
6:12 2 3 mph 1021.5mb 69f
6:06 6 7 mph 1021.5mb 69f
6:00 6 7 mph 1021.3mb 69f
5:54 5 6 mph 1021.4mb 68f
5:48 1 3 mph 1021.3mb 68f
5:42 2 3 mph 1021.3mb 69f
5:36 2 6 mph 1021.2mb 69f
5:30 2 3 mph 1021.2mb 68f
5:24 5 6 mph 1021.2mb 68f
5:18 6 8 mph 1021.2mb 68f
5:12 5 7 mph 1021.2mb 68f
5:06 6 8 mph 1021.3mb 69f
5:00 5 6 mph 1021.2mb 69f
4:54 3 5 mph 1021.2mb 69f
4:48 1 3 mph 1021.2mb 70f
4:42 2
mph
1021.2mb 69f
4:36 5 6 mph 1021.3mb 68f
4:30 3 5 mph 1021.2mb 68f
4:24 3 5 mph 1021.2mb 68f
4:18 5 6 mph 1021.3mb 69f
4:12 3 6 mph 1021.2mb 68f
4:06 5 7 mph 1021.1mb 68f
4:00 7 9 mph 1021.1mb 67f
3:54 8 9 mph 1021.2mb 67f
3:48 7 8 mph 1021.2mb 68f
3:42 6 8 mph 1021.1mb 67f
3:36 7 9 mph 1021.2mb 67f
3:30 5 6 mph 1021.1mb 67f
3:24 7 8 mph 1021.1mb 67f
3:18 6 7 mph 1021.1mb 67f
3:12 6 7 mph 1021.1mb 67f
3:06 6 7 mph 1021.1mb 67f
3:00 6 7 mph 1021.2mb 66f
2:54 6 8 mph 1021.3mb 67f
2:48 5 6 mph 1021.3mb 68f
2:42 1 3 mph 1021.4mb 72f
2:36 3 7 mph 1021.4mb 70f
2:30 7 11 mph 1021.5mb 67f
2:24 9 11 mph 1021.4mb 66f
2:18 9 10 mph 1021.6mb 68f
2:12 5 7 mph 1021.6mb 68f
2:06 5 8 mph 1021.5mb 66f
2:00 5 6 mph 1021.7mb 65f
1:54 7 9 mph 1021.7mb 65f
1:48 7 9 mph 1021.7mb 65f
1:42 7 8 mph 1021.8mb 65f
1:36 3 6 mph 1021.9mb 67f
1:30 3 6 mph 1021.9mb 68f
1:24 2 5 mph 1021.8mb 66f
1:18 2 6 mph 1021.9mb 68f
1:12 5 9 mph 1021.9mb 68f
1:06 10 14 mph 1021.9mb 67f
1:00 8 14 mph 1021.9mb 67f
12:54 9 14 mph 1021.9mb 66f
12:48 9 13 mph 1022mb 67f
12:42 6 9 mph 1021.9mb 66f
12:36 11 15 mph 1021.9mb 65f
12:30 13 15 mph 1022mb 65f
12:24 11 15 mph 1022.1mb 65f
12:18 9 13 mph 1022.1mb 65f
12:12 8 14 mph 1022mb 65f
12:06 11 16 mph 1022.1mb 65f
12:00 10 14 mph 1022.2mb 64f
11:54 11 15 mph 1022.1mb 64f
11:48 11 15 mph 1022.2mb 64f
11:42 13 15 mph 1022.3mb 63f
11:36 15 17 mph 1022.3mb 63f
11:30 14 18 mph 1022.5mb 62f
11:24 11 16 mph 1022.5mb 62f
11:18 14 17 mph 1022.5mb 62f
11:12 13 15 mph 1022.6mb 61f
11:06 16 20 mph 1022.7mb 61f
11:00 17 22 mph 1022.8mb 61f
10:54 14 20 mph 1022.9mb 61f
10:48 14 18 mph 1022.9mb 60f
10:42 10 15 mph 1022.9mb 60f
10:36 13 18 mph 1022.8mb 60f
10:30 15 18 mph 1022.8mb 60f
10:24 14 18 mph 1022.8mb 60f
10:18 15 20 mph 1022.9mb 60f
10:12 13 18 mph 1023mb 60f
10:06 14 20 mph 1022.9mb 59f
10:00 14 18 mph 1023.1mb 59f
9:54 11 17 mph 1023.1mb 58f
9:48 16 21 mph 1023mb 58f
9:42 16 20 mph 1023mb 58f
9:36 17 22 mph 1023.1mb 58f
9:30 11 15 mph 1023.1mb 58f
9:24 16 21 mph 1023mb 58f
9:18 16 22 mph 1023mb 57f
9:12 16 22 mph 1022.9mb 57f
9:06 10 18 mph 1022.9mb 57f
9:00 11 17 mph 1022.8mb 57f
8:54 10 14 mph 1022.8mb 57f
8:48 11 15 mph 1022.8mb 56f
8:42 11 16 mph 1022.8mb 56f
8:36 15 20 mph 1022.8mb 56f
8:30 11 15 mph 1022.8mb 56f
8:24 13 17 mph 1022.9mb 56f
8:18 14 22 mph 1022.8mb 56f
8:12 11 15 mph 1022.8mb 56f
8:06 14 20 mph 1022.7mb 56f
8:00 10 15 mph 1022.8mb 55f
7:54 10 15 mph 1022.7mb 55f
7:48 8 11 mph 1022.8mb 55f
7:42 7 10 mph 1022.7mb 55f
7:36 7 9 mph 1022.7mb 55f
7:30 6 8 mph 1022.7mb 55f
7:24 7 11 mph 1022.6mb 54f
7:18 7 9 mph 1022.6mb 54f
7:12 8 11 mph 1022.5mb 55f
7:06 7 9 mph 1022.3mb 54f
7:00 8 13 mph 1022.1mb 54f
6:54 7 10 mph 1022.1mb 54f
6:48 6 9 mph 1022.1mb 54f
6:42 7 10 mph 1022mb 54f
6:36 8 11 mph 1021.9mb 54f
6:30 7 10 mph 1021.8mb 54f
6:24 7 10 mph 1021.7mb 54f
6:18 6 9 mph 1021.6mb 54f
6:12 7 11 mph 1021.5mb 54f
6:06 7 11 mph 1021.4mb 54f
6:00 7 9 mph 1021.3mb 54f
5:54 8 10 mph 1021.2mb 55f
5:48 7 9 mph 1021.1mb 55f
5:42 8 10 mph 1021mb 55f
5:36 9 11 mph 1021mb 55f
5:30 9 13 mph 1020.9mb 55f
5:24 9 13 mph 1020.8mb 55f
5:18 9 14 mph 1020.8mb 55f
5:12 8 11 mph 1020.7mb 55f
5:06 8 10 mph 1020.7mb 56f
5:00 6 9 mph 1020.5mb 56f
4:54 9 13 mph 1020.6mb 56f
4:48 9 10 mph 1020.5mb 56f
4:42 10 14 mph 1020.4mb 56f
4:36 10 14 mph 1020.5mb 56f
4:30 10 13 mph 1020.3mb 56f
4:24 10 13 mph 1020.3mb 56f
4:18 7 11 mph 1020.3mb 57f
4:12 8 13 mph 1020.2mb 57f
4:06 7 10 mph 1020.2mb 57f
4:00 6 11 mph 1020.1mb 57f
3:54 6 9 mph 1020.1mb 57f
3:48 7 10 mph 1020.1mb 57f
3:42 7 10 mph 1020mb 58f
3:36 8 10 mph 1020mb 58f
3:30 9 11 mph 1019.9mb 58f
3:24 8 13 mph 1019.8mb 58f
3:18 8 13 mph 1019.8mb 58f
3:12 6 9 mph 1019.9mb 58f
3:06 7 10 mph 1019.8mb 59f
3:00 6 11 mph 1019.8mb 59f
2:54 7 8 mph 1019.7mb 59f
2:48 7 9 mph 1019.7mb 59f
2:42 7 11 mph 1019.7mb 59f
2:36 5 8 mph 1019.7mb 60f
2:30 3 6 mph 1019.8mb 60f
2:24 2 3 mph 1019.6mb 60f
2:18 3 5 mph 1019.5mb 60f
2:12 3 5 mph 1019.5mb 60f
2:06 3 5 mph 1019.5mb 60f